sensor_id;sensor_type;location;lat;lon;timestamp;P1;durP1;ratioP1;P2;durP2;ratioP2
11171;SDS011;5642;50.830;12.082;2023-09-19T00:02:08;0.68;;;0.68;;
11171;SDS011;5642;50.830;12.082;2023-09-19T00:04:39;0.52;;;0.50;;
11171;SDS011;5642;50.830;12.082;2023-09-19T00:07:12;0.60;;;0.60;;
11171;SDS011;5642;50.830;12.082;2023-09-19T00:09:44;0.60;;;0.60;;
11171;SDS011;5642;50.830;12.082;2023-09-19T00:12:18;0.65;;;0.65;;
11171;SDS011;5642;50.830;12.082;2023-09-19T00:14:44;0.60;;;0.60;;
11171;SDS011;5642;50.830;12.082;2023-09-19T00:17:18;0.50;;;0.50;;
11171;SDS011;5642;50.830;12.082;2023-09-19T00:19:49;0.40;;;0.40;;
11171;SDS011;5642;50.830;12.082;2023-09-19T00:22:23;0.65;;;0.50;;
11171;SDS011;5642;50.830;12.082;2023-09-19T00:24:57;1.23;;;0.50;;
11171;SDS011;5642;50.830;12.082;2023-09-19T00:27:33;0.47;;;0.47;;
11171;SDS011;5642;50.830;12.082;2023-09-19T00:30:14;0.50;;;0.50;;
11171;SDS011;5642;50.830;12.082;2023-09-19T00:32:54;0.68;;;0.50;;
11171;SDS011;5642;50.830;12.082;2023-09-19T00:35:26;0.50;;;0.50;;
11171;SDS011;5642;50.830;12.082;2023-09-19T00:38:08;0.50;;;0.50;;
11171;SDS011;5642;50.830;12.082;2023-09-19T00:40:39;0.50;;;0.50;;
11171;SDS011;5642;50.830;12.082;2023-09-19T00:43:23;0.57;;;0.45;;
11171;SDS011;5642;50.830;12.082;2023-09-19T00:46:02;0.52;;;0.52;;
11171;SDS011;5642;50.830;12.082;2023-09-19T00:48:37;0.95;;;0.50;;
11171;SDS011;5642;50.830;12.082;2023-09-19T00:51:16;0.55;;;0.52;;
11171;SDS011;5642;50.830;12.082;2023-09-19T00:53:52;0.57;;;0.57;;
11171;SDS011;5642;50.830;12.082;2023-09-19T00:56:28;0.30;;;0.30;;
11171;SDS011;5642;50.830;12.082;2023-09-19T00:59:01;0.40;;;0.40;;
11171;SDS011;5642;50.830;12.082;2023-09-19T01:01:33;0.40;;;0.40;;
11171;SDS011;5642;50.830;12.082;2023-09-19T01:04:09;0.50;;;0.50;;
11171;SDS011;5642;50.830;12.082;2023-09-19T01:06:41;0.52;;;0.40;;
11171;SDS011;5642;50.830;12.082;2023-09-19T01:09:25;2.28;;;0.50;;
11171;SDS011;5642;50.830;12.082;2023-09-19T01:11:58;0.50;;;0.50;;
11171;SDS011;5642;50.830;12.082;2023-09-19T01:14:45;1.75;;;0.60;;
11171;SDS011;5642;50.830;12.082;2023-09-19T01:20:51;0.40;;;0.40;;
11171;SDS011;5642;50.830;12.082;2023-09-19T01:23:34;0.52;;;0.52;;
11171;SDS011;5642;50.830;12.082;2023-09-19T01:28:53;0.40;;;0.40;;
11171;SDS011;5642;50.830;12.082;2023-09-19T01:31:35;0.40;;;0.40;;
11171;SDS011;5642;50.830;12.082;2023-09-19T01:34:11;0.50;;;0.50;;
11171;SDS011;5642;50.830;12.082;2023-09-19T01:36:56;0.40;;;0.40;;
11171;SDS011;5642;50.830;12.082;2023-09-19T01:39:45;0.57;;;0.50;;
11171;SDS011;5642;50.830;12.082;2023-09-19T01:54:34;0.40;;;0.40;;
11171;SDS011;5642;50.830;12.082;2023-09-19T01:57:26;0.40;;;0.40;;
11171;SDS011;5642;50.830;12.082;2023-09-19T02:00:05;0.50;;;0.50;;
11171;SDS011;5642;50.830;12.082;2023-09-19T02:02:35;0.32;;;0.32;;
11171;SDS011;5642;50.830;12.082;2023-09-19T02:05:10;0.50;;;0.50;;
11171;SDS011;5642;50.830;12.082;2023-09-19T02:07:43;1.70;;;0.60;;
11171;SDS011;5642;50.830;12.082;2023-09-19T02:10:17;0.60;;;0.60;;
11171;SDS011;5642;50.830;12.082;2023-09-19T02:12:48;0.40;;;0.40;;
11171;SDS011;5642;50.830;12.082;2023-09-19T02:15:25;0.50;;;0.50;;
11171;SDS011;5642;50.830;12.082;2023-09-19T02:17:54;0.60;;;0.60;;
11171;SDS011;5642;50.830;12.082;2023-09-19T02:20:46;1.45;;;0.50;;
11171;SDS011;5642;50.830;12.082;2023-09-19T02:23:13;0.73;;;0.73;;
11171;SDS011;5642;50.830;12.082;2023-09-19T02:25:39;0.50;;;0.50;;
11171;SDS011;5642;50.830;12.082;2023-09-19T02:28:11;1.30;;;0.60;;
11171;SDS011;5642;50.830;12.082;2023-09-19T02:30:48;0.63;;;0.50;;
11171;SDS011;5642;50.830;12.082;2023-09-19T02:33:24;0.55;;;0.55;;
11171;SDS011;5642;50.830;12.082;2023-09-19T02:35:57;0.50;;;0.50;;
11171;SDS011;5642;50.830;12.082;2023-09-19T02:38:33;0.50;;;0.50;;
11171;SDS011;5642;50.830;12.082;2023-09-19T02:41:14;0.50;;;0.50;;
11171;SDS011;5642;50.830;12.082;2023-09-19T02:43:40;0.40;;;0.40;;
11171;SDS011;5642;50.830;12.082;2023-09-19T02:46:08;0.50;;;0.50;;
11171;SDS011;5642;50.830;12.082;2023-09-19T02:48:37;0.60;;;0.60;;
11171;SDS011;5642;50.830;12.082;2023-09-19T02:51:12;0.88;;;0.60;;
11171;SDS011;5642;50.830;12.082;2023-09-19T02:53:39;0.40;;;0.40;;
11171;SDS011;5642;50.830;12.082;2023-09-19T02:56:09;0.50;;;0.50;;
11171;SDS011;5642;50.830;12.082;2023-09-19T02:58:44;0.55;;;0.50;;
11171;SDS011;5642;50.830;12.082;2023-09-19T03:01:10;1.05;;;0.70;;
11171;SDS011;5642;50.830;12.082;2023-09-19T03:03:45;0.50;;;0.50;;
11171;SDS011;5642;50.830;12.082;2023-09-19T03:06:38;0.50;;;0.50;;
11171;SDS011;5642;50.830;12.082;2023-09-19T03:09:10;1.75;;;0.63;;
11171;SDS011;5642;50.830;12.082;2023-09-19T03:11:42;2.00;;;0.68;;
11171;SDS011;5642;50.830;12.082;2023-09-19T03:14:10;0.70;;;0.68;;
11171;SDS011;5642;50.830;12.082;2023-09-19T03:16:36;0.60;;;0.60;;
11171;SDS011;5642;50.830;12.082;2023-09-19T03:19:10;0.60;;;0.60;;
11171;SDS011;5642;50.830;12.082;2023-09-19T03:21:49;0.75;;;0.75;;
11171;SDS011;5642;50.830;12.082;2023-09-19T03:24:19;0.73;;;0.70;;
11171;SDS011;5642;50.830;12.082;2023-09-19T03:27:09;1.60;;;0.65;;
11171;SDS011;5642;50.830;12.082;2023-09-19T03:29:44;0.52;;;0.52;;
11171;SDS011;5642;50.830;12.082;2023-09-19T03:32:10;0.65;;;0.65;;
11171;SDS011;5642;50.830;12.082;2023-09-19T03:34:48;0.50;;;0.50;;
11171;SDS011;5642;50.830;12.082;2023-09-19T03:37:32;0.40;;;0.40;;
11171;SDS011;5642;50.830;12.082;2023-09-19T03:40:01;0.50;;;0.45;;
11171;SDS011;5642;50.830;12.082;2023-09-19T03:42:48;0.60;;;0.60;;
11171;SDS011;5642;50.830;12.082;2023-09-19T03:45:14;0.60;;;0.60;;
11171;SDS011;5642;50.830;12.082;2023-09-19T03:47:42;0.73;;;0.73;;
11171;SDS011;5642;50.830;12.082;2023-09-19T03:50:22;0.82;;;0.80;;
11171;SDS011;5642;50.830;12.082;2023-09-19T03:52:55;0.80;;;0.80;;
11171;SDS011;5642;50.830;12.082;2023-09-19T03:55:22;0.95;;;0.85;;
11171;SDS011;5642;50.830;12.082;2023-09-19T03:58:03;0.75;;;0.75;;
11171;SDS011;5642;50.830;12.082;2023-09-19T04:00:54;0.60;;;0.60;;
11171;SDS011;5642;50.830;12.082;2023-09-19T04:03:34;0.57;;;0.57;;
11171;SDS011;5642;50.830;12.082;2023-09-19T04:06:19;0.40;;;0.40;;
11171;SDS011;5642;50.830;12.082;2023-09-19T04:08:45;0.60;;;0.60;;
11171;SDS011;5642;50.830;12.082;2023-09-19T04:11:14;0.60;;;0.60;;
11171;SDS011;5642;50.830;12.082;2023-09-19T04:14:02;1.17;;;1.02;;
11171;SDS011;5642;50.830;12.082;2023-09-19T04:16:30;1.92;;;0.90;;
11171;SDS011;5642;50.830;12.082;2023-09-19T04:19:11;0.70;;;0.70;;
11171;SDS011;5642;50.830;12.082;2023-09-19T04:21:37;0.80;;;0.80;;
11171;SDS011;5642;50.830;12.082;2023-09-19T04:24:04;0.68;;;0.68;;
11171;SDS011;5642;50.830;12.082;2023-09-19T04:26:35;0.52;;;0.52;;
11171;SDS011;5642;50.830;12.082;2023-09-19T04:29:02;0.40;;;0.40;;
11171;SDS011;5642;50.830;12.082;2023-09-19T04:31:29;0.38;;;0.38;;
11171;SDS011;5642;50.830;12.082;2023-09-19T04:34:15;0.70;;;0.70;;
11171;SDS011;5642;50.830;12.082;2023-09-19T04:37:16;0.50;;;0.50;;
11171;SDS011;5642;50.830;12.082;2023-09-19T04:40:01;1.73;;;0.80;;
11171;SDS011;5642;50.830;12.082;2023-09-19T04:42:30;1.15;;;1.02;;
11171;SDS011;5642;50.830;12.082;2023-09-19T04:44:57;0.63;;;0.63;;
11171;SDS011;5642;50.830;12.082;2023-09-19T04:47:36;0.55;;;0.55;;
11171;SDS011;5642;50.830;12.082;2023-09-19T04:50:09;0.47;;;0.47;;
11171;SDS011;5642;50.830;12.082;2023-09-19T04:52:49;0.90;;;0.50;;
11171;SDS011;5642;50.830;12.082;2023-09-19T04:55:17;0.50;;;0.50;;
11171;SDS011;5642;50.830;12.082;2023-09-19T04:57:45;0.90;;;0.70;;
11171;SDS011;5642;50.830;12.082;2023-09-19T05:00:29;1.10;;;0.65;;
11171;SDS011;5642;50.830;12.082;2023-09-19T05:03:05;0.50;;;0.50;;
11171;SDS011;5642;50.830;12.082;2023-09-19T05:05:39;0.60;;;0.60;;
11171;SDS011;5642;50.830;12.082;2023-09-19T05:08:14;0.60;;;0.60;;
11171;SDS011;5642;50.830;12.082;2023-09-19T05:10:45;0.52;;;0.52;;
11171;SDS011;5642;50.830;12.082;2023-09-19T05:13:17;0.52;;;0.52;;
11171;SDS011;5642;50.830;12.082;2023-09-19T05:15:44;0.90;;;0.70;;
11171;SDS011;5642;50.830;12.082;2023-09-19T05:18:25;1.15;;;0.43;;
11171;SDS011;5642;50.830;12.082;2023-09-19T05:21:13;0.60;;;0.60;;
11171;SDS011;5642;50.830;12.082;2023-09-19T05:23:41;0.50;;;0.50;;
11171;SDS011;5642;50.830;12.082;2023-09-19T05:26:13;0.47;;;0.47;;
11171;SDS011;5642;50.830;12.082;2023-09-19T05:28:43;2.55;;;0.70;;
11171;SDS011;5642;50.830;12.082;2023-09-19T05:31:21;0.47;;;0.47;;
11171;SDS011;5642;50.830;12.082;2023-09-19T05:33:51;0.65;;;0.65;;
11171;SDS011;5642;50.830;12.082;2023-09-19T05:36:31;0.60;;;0.60;;
11171;SDS011;5642;50.830;12.082;2023-09-19T05:38:59;0.47;;;0.40;;
11171;SDS011;5642;50.830;12.082;2023-09-19T05:41:27;0.40;;;0.40;;
11171;SDS011;5642;50.830;12.082;2023-09-19T05:43:54;1.30;;;0.60;;
11171;SDS011;5642;50.830;12.082;2023-09-19T05:46:22;0.50;;;0.50;;
11171;SDS011;5642;50.830;12.082;2023-09-19T05:48:55;0.68;;;0.68;;
11171;SDS011;5642;50.830;12.082;2023-09-19T05:51:25;0.50;;;0.50;;
11171;SDS011;5642;50.830;12.082;2023-09-19T05:53:55;0.63;;;0.50;;
11171;SDS011;5642;50.830;12.082;2023-09-19T05:56:23;0.60;;;0.60;;
11171;SDS011;5642;50.830;12.082;2023-09-19T05:58:53;0.50;;;0.50;;
11171;SDS011;5642;50.830;12.082;2023-09-19T06:01:20;0.70;;;0.60;;
11171;SDS011;5642;50.830;12.082;2023-09-19T06:03:47;0.52;;;0.52;;
11171;SDS011;5642;50.830;12.082;2023-09-19T06:06:21;1.00;;;0.70;;
11171;SDS011;5642;50.830;12.082;2023-09-19T06:08:55;0.80;;;0.75;;
11171;SDS011;5642;50.830;12.082;2023-09-19T06:11:24;0.70;;;0.70;;
11171;SDS011;5642;50.830;12.082;2023-09-19T06:13:54;0.57;;;0.50;;
11171;SDS011;5642;50.830;12.082;2023-09-19T06:16:37;0.63;;;0.63;;
11171;SDS011;5642;50.830;12.082;2023-09-19T06:19:10;0.50;;;0.50;;
11171;SDS011;5642;50.830;12.082;2023-09-19T06:21:39;0.57;;;0.52;;
11171;SDS011;5642;50.830;12.082;2023-09-19T06:24:09;1.55;;;0.65;;
11171;SDS011;5642;50.830;12.082;2023-09-19T06:26:35;0.60;;;0.60;;
11171;SDS011;5642;50.830;12.082;2023-09-19T06:29:13;0.50;;;0.50;;
11171;SDS011;5642;50.830;12.082;2023-09-19T06:31:48;0.40;;;0.40;;
11171;SDS011;5642;50.830;12.082;2023-09-19T06:34:15;0.38;;;0.38;;
11171;SDS011;5642;50.830;12.082;2023-09-19T06:36:44;0.60;;;0.60;;
11171;SDS011;5642;50.830;12.082;2023-09-19T06:39:11;0.38;;;0.38;;
11171;SDS011;5642;50.830;12.082;2023-09-19T06:41:38;0.40;;;0.40;;
11171;SDS011;5642;50.830;12.082;2023-09-19T06:44:07;0.45;;;0.45;;
11171;SDS011;5642;50.830;12.082;2023-09-19T06:46:35;0.50;;;0.50;;
11171;SDS011;5642;50.830;12.082;2023-09-19T06:49:13;0.47;;;0.47;;
11171;SDS011;5642;50.830;12.082;2023-09-19T06:51:41;0.57;;;0.50;;
11171;SDS011;5642;50.830;12.082;2023-09-19T06:54:11;0.40;;;0.40;;
11171;SDS011;5642;50.830;12.082;2023-09-19T06:56:39;0.25;;;0.25;;
11171;SDS011;5642;50.830;12.082;2023-09-19T06:59:08;0.40;;;0.40;;
11171;SDS011;5642;50.830;12.082;2023-09-19T07:01:49;0.40;;;0.40;;
11171;SDS011;5642;50.830;12.082;2023-09-19T07:04:18;0.50;;;0.50;;
11171;SDS011;5642;50.830;12.082;2023-09-19T07:06:49;0.50;;;0.50;;
11171;SDS011;5642;50.830;12.082;2023-09-19T07:09:20;0.50;;;0.50;;
11171;SDS011;5642;50.830;12.082;2023-09-19T07:11:49;0.50;;;0.50;;
11171;SDS011;5642;50.830;12.082;2023-09-19T07:14:20;0.45;;;0.38;;
11171;SDS011;5642;50.830;12.082;2023-09-19T07:16:46;0.40;;;0.40;;
11171;SDS011;5642;50.830;12.082;2023-09-19T07:19:26;0.50;;;0.50;;
11171;SDS011;5642;50.830;12.082;2023-09-19T07:21:58;2.85;;;0.40;;
11171;SDS011;5642;50.830;12.082;2023-09-19T07:24:31;0.45;;;0.45;;
11171;SDS011;5642;50.830;12.082;2023-09-19T07:27:00;0.45;;;0.32;;
11171;SDS011;5642;50.830;12.082;2023-09-19T07:29:27;0.30;;;0.30;;
11171;SDS011;5642;50.830;12.082;2023-09-19T07:31:54;0.65;;;0.43;;
11171;SDS011;5642;50.830;12.082;2023-09-19T07:34:24;0.32;;;0.32;;
11171;SDS011;5642;50.830;12.082;2023-09-19T07:36:54;0.30;;;0.30;;
11171;SDS011;5642;50.830;12.082;2023-09-19T07:39:26;0.32;;;0.32;;
11171;SDS011;5642;50.830;12.082;2023-09-19T07:41:54;0.40;;;0.40;;
11171;SDS011;5642;50.830;12.082;2023-09-19T07:44:43;0.40;;;0.40;;
11171;SDS011;5642;50.830;12.082;2023-09-19T07:47:24;0.60;;;0.50;;
11171;SDS011;5642;50.830;12.082;2023-09-19T07:49:56;1.02;;;0.50;;
11171;SDS011;5642;50.830;12.082;2023-09-19T07:52:23;0.43;;;0.43;;
11171;SDS011;5642;50.830;12.082;2023-09-19T07:55:00;0.35;;;0.35;;
11171;SDS011;5642;50.830;12.082;2023-09-19T07:57:32;1.65;;;1.55;;
11171;SDS011;5642;50.830;12.082;2023-09-19T08:00:00;1.65;;;1.55;;
11171;SDS011;5642;50.830;12.082;2023-09-19T08:02:37;1.20;;;1.20;;
11171;SDS011;5642;50.830;12.082;2023-09-19T08:05:14;1.15;;;1.10;;
11171;SDS011;5642;50.830;12.082;2023-09-19T08:07:53;0.80;;;0.80;;
11171;SDS011;5642;50.830;12.082;2023-09-19T08:10:32;0.50;;;0.50;;
11171;SDS011;5642;50.830;12.082;2023-09-19T08:13:01;0.55;;;0.55;;
11171;SDS011;5642;50.830;12.082;2023-09-19T08:15:28;0.43;;;0.43;;
11171;SDS011;5642;50.830;12.082;2023-09-19T08:17:56;0.50;;;0.50;;
11171;SDS011;5642;50.830;12.082;2023-09-19T08:20:31;0.30;;;0.30;;
11171;SDS011;5642;50.830;12.082;2023-09-19T08:23:02;0.40;;;0.40;;
11171;SDS011;5642;50.830;12.082;2023-09-19T08:26:02;0.60;;;0.52;;
11171;SDS011;5642;50.830;12.082;2023-09-19T08:28:34;0.65;;;0.50;;
11171;SDS011;5642;50.830;12.082;2023-09-19T08:31:06;0.47;;;0.47;;
11171;SDS011;5642;50.830;12.082;2023-09-19T08:33:35;0.68;;;0.50;;
11171;SDS011;5642;50.830;12.082;2023-09-19T08:36:03;0.57;;;0.57;;
11171;SDS011;5642;50.830;12.082;2023-09-19T08:38:31;0.40;;;0.40;;
11171;SDS011;5642;50.830;12.082;2023-09-19T08:41:19;0.60;;;0.60;;
11171;SDS011;5642;50.830;12.082;2023-09-19T08:43:46;1.13;;;0.70;;
11171;SDS011;5642;50.830;12.082;2023-09-19T08:46:16;0.30;;;0.30;;
11171;SDS011;5642;50.830;12.082;2023-09-19T08:49:08;0.50;;;0.50;;
11171;SDS011;5642;50.830;12.082;2023-09-19T08:51:46;0.40;;;0.40;;
11171;SDS011;5642;50.830;12.082;2023-09-19T08:54:29;0.85;;;0.63;;
11171;SDS011;5642;50.830;12.082;2023-09-19T08:57:07;0.32;;;0.32;;
11171;SDS011;5642;50.830;12.082;2023-09-19T08:59:41;0.82;;;0.32;;
11171;SDS011;5642;50.830;12.082;2023-09-19T09:02:20;0.40;;;0.40;;
11171;SDS011;5642;50.830;12.082;2023-09-19T09:04:48;0.40;;;0.40;;
11171;SDS011;5642;50.830;12.082;2023-09-19T09:07:16;0.40;;;0.40;;
11171;SDS011;5642;50.830;12.082;2023-09-19T09:09:46;0.50;;;0.47;;
11171;SDS011;5642;50.830;12.082;2023-09-19T09:12:17;0.70;;;0.50;;
11171;SDS011;5642;50.830;12.082;2023-09-19T09:14:45;0.50;;;0.50;;
11171;SDS011;5642;50.830;12.082;2023-09-19T09:17:18;0.40;;;0.40;;
11171;SDS011;5642;50.830;12.082;2023-09-19T09:19:49;0.45;;;0.45;;
11171;SDS011;5642;50.830;12.082;2023-09-19T09:22:19;0.50;;;0.50;;
11171;SDS011;5642;50.830;12.082;2023-09-19T09:24:56;0.93;;;0.43;;
11171;SDS011;5642;50.830;12.082;2023-09-19T09:27:33;0.43;;;0.43;;
11171;SDS011;5642;50.830;12.082;2023-09-19T09:30:03;0.52;;;0.32;;
11171;SDS011;5642;50.830;12.082;2023-09-19T09:32:30;0.60;;;0.60;;
11171;SDS011;5642;50.830;12.082;2023-09-19T09:35:07;0.60;;;0.50;;
11171;SDS011;5642;50.830;12.082;2023-09-19T09:37:59;0.63;;;0.63;;
11171;SDS011;5642;50.830;12.082;2023-09-19T09:40:57;0.50;;;0.50;;
11171;SDS011;5642;50.830;12.082;2023-09-19T09:43:38;0.40;;;0.40;;
11171;SDS011;5642;50.830;12.082;2023-09-19T09:46:18;0.60;;;0.60;;
11171;SDS011;5642;50.830;12.082;2023-09-19T09:48:56;0.40;;;0.40;;
11171;SDS011;5642;50.830;12.082;2023-09-19T09:51:42;0.55;;;0.55;;
11171;SDS011;5642;50.830;12.082;2023-09-19T09:54:24;0.45;;;0.45;;
11171;SDS011;5642;50.830;12.082;2023-09-19T09:57:08;0.80;;;0.50;;
11171;SDS011;5642;50.830;12.082;2023-09-19T09:59:49;0.50;;;0.50;;
11171;SDS011;5642;50.830;12.082;2023-09-19T10:02:25;0.28;;;0.28;;
11171;SDS011;5642;50.830;12.082;2023-09-19T10:04:59;0.32;;;0.30;;
11171;SDS011;5642;50.830;12.082;2023-09-19T10:07:40;0.68;;;0.40;;
11171;SDS011;5642;50.830;12.082;2023-09-19T10:10:13;0.50;;;0.50;;
11171;SDS011;5642;50.830;12.082;2023-09-19T10:12:46;0.40;;;0.40;;
11171;SDS011;5642;50.830;12.082;2023-09-19T10:15:22;0.50;;;0.50;;
11171;SDS011;5642;50.830;12.082;2023-09-19T10:17:53;0.40;;;0.40;;
11171;SDS011;5642;50.830;12.082;2023-09-19T10:20:22;0.80;;;0.50;;
11171;SDS011;5642;50.830;12.082;2023-09-19T10:23:11;0.40;;;0.40;;
11171;SDS011;5642;50.830;12.082;2023-09-19T10:25:40;0.80;;;0.80;;
11171;SDS011;5642;50.830;12.082;2023-09-19T10:28:12;0.40;;;0.40;;
11171;SDS011;5642;50.830;12.082;2023-09-19T10:30:43;0.40;;;0.40;;
11171;SDS011;5642;50.830;12.082;2023-09-19T10:33:19;0.50;;;0.45;;
11171;SDS011;5642;50.830;12.082;2023-09-19T10:35:51;0.40;;;0.40;;
11171;SDS011;5642;50.830;12.082;2023-09-19T10:38:25;0.40;;;0.40;;
11171;SDS011;5642;50.830;12.082;2023-09-19T10:40:56;0.35;;;0.35;;
11171;SDS011;5642;50.830;12.082;2023-09-19T10:43:29;0.50;;;0.50;;
11171;SDS011;5642;50.830;12.082;2023-09-19T10:46:02;0.60;;;0.60;;
11171;SDS011;5642;50.830;12.082;2023-09-19T10:48:33;0.85;;;0.52;;
11171;SDS011;5642;50.830;12.082;2023-09-19T10:53:32;0.80;;;0.75;;
11171;SDS011;5642;50.830;12.082;2023-09-19T10:56:30;0.57;;;0.57;;
11171;SDS011;5642;50.830;12.082;2023-09-19T10:59:13;0.55;;;0.55;;
11171;SDS011;5642;50.830;12.082;2023-09-19T11:01:47;1.70;;;0.70;;
11171;SDS011;5642;50.830;12.082;2023-09-19T11:04:23;0.82;;;0.57;;
11171;SDS011;5642;50.830;12.082;2023-09-19T11:07:12;0.60;;;0.60;;
11171;SDS011;5642;50.830;12.082;2023-09-19T11:09:47;0.70;;;0.70;;
11171;SDS011;5642;50.830;12.082;2023-09-19T11:15:04;0.80;;;0.80;;
11171;SDS011;5642;50.830;12.082;2023-09-19T11:17:44;0.80;;;0.80;;
11171;SDS011;5642;50.830;12.082;2023-09-19T11:20:24;4.00;;;1.02;;
11171;SDS011;5642;50.830;12.082;2023-09-19T11:25:43;3.58;;;2.00;;
11171;SDS011;5642;50.830;12.082;2023-09-19T11:30:51;2.33;;;1.20;;
11171;SDS011;5642;50.830;12.082;2023-09-19T11:33:27;2.67;;;1.50;;
11171;SDS011;5642;50.830;12.082;2023-09-19T11:36:08;1.23;;;1.10;;
11171;SDS011;5642;50.830;12.082;2023-09-19T11:46:52;6.20;;;3.05;;
11171;SDS011;5642;50.830;12.082;2023-09-19T11:49:31;6.45;;;2.90;;
11171;SDS011;5642;50.830;12.082;2023-09-19T11:52:00;4.63;;;2.58;;
11171;SDS011;5642;50.830;12.082;2023-09-19T11:54:30;2.33;;;2.00;;
11171;SDS011;5642;50.830;12.082;2023-09-19T11:57:01;2.22;;;1.70;;
11171;SDS011;5642;50.830;12.082;2023-09-19T11:59:35;5.43;;;2.97;;
11171;SDS011;5642;50.830;12.082;2023-09-19T12:02:05;4.38;;;2.35;;
11171;SDS011;5642;50.830;12.082;2023-09-19T12:04:37;3.13;;;1.88;;
11171;SDS011;5642;50.830;12.082;2023-09-19T12:07:10;2.58;;;1.65;;
11171;SDS011;5642;50.830;12.082;2023-09-19T12:09:48;2.35;;;1.48;;
11171;SDS011;5642;50.830;12.082;2023-09-19T12:12:20;1.55;;;1.45;;
11171;SDS011;5642;50.830;12.082;2023-09-19T12:14:51;1.83;;;1.33;;
11171;SDS011;5642;50.830;12.082;2023-09-19T12:17:19;1.77;;;1.35;;
11171;SDS011;5642;50.830;12.082;2023-09-19T12:19:50;0.98;;;0.98;;
11171;SDS011;5642;50.830;12.082;2023-09-19T12:22:21;1.20;;;1.10;;
11171;SDS011;5642;50.830;12.082;2023-09-19T12:24:48;1.58;;;1.40;;
11171;SDS011;5642;50.830;12.082;2023-09-19T12:27:23;1.38;;;1.27;;
11171;SDS011;5642;50.830;12.082;2023-09-19T12:29:53;1.08;;;1.00;;
11171;SDS011;5642;50.830;12.082;2023-09-19T12:32:34;1.10;;;1.00;;
11171;SDS011;5642;50.830;12.082;2023-09-19T12:35:07;1.35;;;1.15;;
11171;SDS011;5642;50.830;12.082;2023-09-19T12:37:37;2.33;;;1.25;;
11171;SDS011;5642;50.830;12.082;2023-09-19T12:40:19;1.48;;;1.15;;
11171;SDS011;5642;50.830;12.082;2023-09-19T12:42:56;1.30;;;1.20;;
11171;SDS011;5642;50.830;12.082;2023-09-19T12:45:26;2.60;;;1.85;;
11171;SDS011;5642;50.830;12.082;2023-09-19T12:51:01;1.30;;;1.20;;
11171;SDS011;5642;50.830;12.082;2023-09-19T12:53:29;0.95;;;0.85;;
11171;SDS011;5642;50.830;12.082;2023-09-19T12:56:00;2.20;;;1.30;;
11171;SDS011;5642;50.830;12.082;2023-09-19T12:58:55;2.20;;;1.50;;
11171;SDS011;5642;50.830;12.082;2023-09-19T13:01:24;1.52;;;1.35;;
11171;SDS011;5642;50.830;12.082;2023-09-19T13:04:12;1.20;;;1.10;;
11171;SDS011;5642;50.830;12.082;2023-09-19T13:06:54;1.50;;;1.08;;
11171;SDS011;5642;50.830;12.082;2023-09-19T13:09:23;0.90;;;0.90;;
11171;SDS011;5642;50.830;12.082;2023-09-19T13:11:56;1.13;;;1.02;;
11171;SDS011;5642;50.830;12.082;2023-09-19T13:14:38;2.65;;;0.88;;
11171;SDS011;5642;50.830;12.082;2023-09-19T13:17:11;0.80;;;0.80;;
11171;SDS011;5642;50.830;12.082;2023-09-19T13:19:45;0.95;;;0.80;;
11171;SDS011;5642;50.830;12.082;2023-09-19T13:25:37;0.80;;;0.80;;
11171;SDS011;5642;50.830;12.082;2023-09-19T13:28:06;1.35;;;0.90;;
11171;SDS011;5642;50.830;12.082;2023-09-19T13:30:32;0.93;;;0.90;;
11171;SDS011;5642;50.830;12.082;2023-09-19T13:33:15;0.90;;;0.90;;
11171;SDS011;5642;50.830;12.082;2023-09-19T13:35:46;0.98;;;0.98;;
11171;SDS011;5642;50.830;12.082;2023-09-19T13:38:17;1.13;;;1.00;;
11171;SDS011;5642;50.830;12.082;2023-09-19T13:40:44;1.00;;;0.90;;
11171;SDS011;5642;50.830;12.082;2023-09-19T13:43:11;0.90;;;0.90;;
11171;SDS011;5642;50.830;12.082;2023-09-19T13:45:43;1.27;;;0.90;;
11171;SDS011;5642;50.830;12.082;2023-09-19T13:48:14;1.00;;;0.90;;
11171;SDS011;5642;50.830;12.082;2023-09-19T13:50:41;1.10;;;1.00;;
11171;SDS011;5642;50.830;12.082;2023-09-19T13:53:08;1.83;;;1.10;;
11171;SDS011;5642;50.830;12.082;2023-09-19T13:55:35;1.20;;;1.10;;
11171;SDS011;5642;50.830;12.082;2023-09-19T13:58:06;0.88;;;0.88;;
11171;SDS011;5642;50.830;12.082;2023-09-19T14:00:33;1.20;;;1.10;;
11171;SDS011;5642;50.830;12.082;2023-09-19T14:03:02;1.17;;;1.00;;
11171;SDS011;5642;50.830;12.082;2023-09-19T14:05:49;1.38;;;1.27;;
11171;SDS011;5642;50.830;12.082;2023-09-19T14:08:17;0.90;;;0.90;;
11171;SDS011;5642;50.830;12.082;2023-09-19T14:10:49;1.00;;;0.90;;
11171;SDS011;5642;50.830;12.082;2023-09-19T14:13:15;1.02;;;1.00;;
11171;SDS011;5642;50.830;12.082;2023-09-19T14:15:44;2.88;;;1.13;;
11171;SDS011;5642;50.830;12.082;2023-09-19T14:18:10;1.25;;;1.00;;
11171;SDS011;5642;50.830;12.082;2023-09-19T14:20:38;1.00;;;1.00;;
11171;SDS011;5642;50.830;12.082;2023-09-19T14:23:16;1.60;;;0.95;;
11171;SDS011;5642;50.830;12.082;2023-09-19T14:25:44;1.35;;;1.00;;
11171;SDS011;5642;50.830;12.082;2023-09-19T14:28:14;0.90;;;0.90;;
11171;SDS011;5642;50.830;12.082;2023-09-19T14:30:58;0.88;;;0.80;;
11171;SDS011;5642;50.830;12.082;2023-09-19T14:33:29;1.67;;;1.17;;
11171;SDS011;5642;50.830;12.082;2023-09-19T14:35:55;0.90;;;0.90;;
11171;SDS011;5642;50.830;12.082;2023-09-19T14:38:27;0.90;;;0.90;;
11171;SDS011;5642;50.830;12.082;2023-09-19T14:41:16;1.77;;;1.05;;
11171;SDS011;5642;50.830;12.082;2023-09-19T14:43:42;1.02;;;0.88;;
11171;SDS011;5642;50.830;12.082;2023-09-19T14:46:08;0.85;;;0.85;;
11171;SDS011;5642;50.830;12.082;2023-09-19T14:48:54;0.93;;;0.90;;
11171;SDS011;5642;50.830;12.082;2023-09-19T14:51:25;0.90;;;0.90;;
11171;SDS011;5642;50.830;12.082;2023-09-19T14:54:23;1.00;;;1.00;;
11171;SDS011;5642;50.830;12.082;2023-09-19T14:56:49;1.10;;;1.00;;
11171;SDS011;5642;50.830;12.082;2023-09-19T14:59:19;0.90;;;0.90;;
11171;SDS011;5642;50.830;12.082;2023-09-19T15:02:04;0.90;;;0.90;;
11171;SDS011;5642;50.830;12.082;2023-09-19T15:04:31;0.88;;;0.88;;
11171;SDS011;5642;50.830;12.082;2023-09-19T15:06:57;1.10;;;1.10;;
11171;SDS011;5642;50.830;12.082;2023-09-19T15:09:24;0.95;;;0.95;;
11171;SDS011;5642;50.830;12.082;2023-09-19T15:12:04;1.13;;;1.02;;
11171;SDS011;5642;50.830;12.082;2023-09-19T15:14:30;1.65;;;1.40;;
11171;SDS011;5642;50.830;12.082;2023-09-19T15:17:06;1.30;;;1.20;;
11171;SDS011;5642;50.830;12.082;2023-09-19T15:19:45;1.20;;;1.10;;
11171;SDS011;5642;50.830;12.082;2023-09-19T15:22:13;1.10;;;1.00;;
11171;SDS011;5642;50.830;12.082;2023-09-19T15:24:40;1.40;;;1.10;;
11171;SDS011;5642;50.830;12.082;2023-09-19T15:27:13;1.00;;;1.00;;
11171;SDS011;5642;50.830;12.082;2023-09-19T15:29:39;1.20;;;1.10;;
11171;SDS011;5642;50.830;12.082;2023-09-19T15:32:06;0.95;;;0.90;;
11171;SDS011;5642;50.830;12.082;2023-09-19T15:34:34;1.15;;;1.10;;
11171;SDS011;5642;50.830;12.082;2023-09-19T15:37:17;1.10;;;1.00;;
11171;SDS011;5642;50.830;12.082;2023-09-19T15:40:02;0.90;;;0.90;;
11171;SDS011;5642;50.830;12.082;2023-09-19T15:42:34;1.10;;;1.10;;
11171;SDS011;5642;50.830;12.082;2023-09-19T15:45:00;1.13;;;1.10;;
11171;SDS011;5642;50.830;12.082;2023-09-19T15:47:27;1.30;;;1.20;;
11171;SDS011;5642;50.830;12.082;2023-09-19T15:49:55;1.00;;;1.00;;
11171;SDS011;5642;50.830;12.082;2023-09-19T15:52:21;1.55;;;1.20;;
11171;SDS011;5642;50.830;12.082;2023-09-19T15:54:52;1.30;;;1.20;;
11171;SDS011;5642;50.830;12.082;2023-09-19T15:57:18;1.15;;;1.05;;
11171;SDS011;5642;50.830;12.082;2023-09-19T15:59:44;1.27;;;1.17;;
11171;SDS011;5642;50.830;12.082;2023-09-19T16:02:13;1.17;;;1.10;;
11171;SDS011;5642;50.830;12.082;2023-09-19T16:04:39;1.23;;;1.13;;
11171;SDS011;5642;50.830;12.082;2023-09-19T16:07:06;1.13;;;1.02;;
11171;SDS011;5642;50.830;12.082;2023-09-19T16:09:45;1.30;;;1.20;;
11171;SDS011;5642;50.830;12.082;2023-09-19T16:12:34;0.98;;;0.98;;